sensor_id;sensor_type;location;lat;lon;timestamp;P1;durP1;ratioP1;P2;durP2;ratioP2
9860;SDS011;4969;52.304;4.968;2023-11-21T00:01:02;12.63;;;7.87;;
9860;SDS011;4969;52.304;4.968;2023-11-21T00:03:29;11.20;;;8.60;;
9860;SDS011;4969;52.304;4.968;2023-11-21T00:05:56;9.90;;;8.17;;
9860;SDS011;4969;52.304;4.968;2023-11-21T00:08:23;12.97;;;8.77;;
9860;SDS011;4969;52.304;4.968;2023-11-21T00:10:49;14.57;;;9.23;;
9860;SDS011;4969;52.304;4.968;2023-11-21T00:13:16;17.70;;;8.63;;
9860;SDS011;4969;52.304;4.968;2023-11-21T00:15:42;12.70;;;7.90;;
9860;SDS011;4969;52.304;4.968;2023-11-21T00:18:10;13.57;;;8.83;;
9860;SDS011;4969;52.304;4.968;2023-11-21T00:20:37;16.30;;;8.93;;
9860;SDS011;4969;52.304;4.968;2023-11-21T00:23:04;10.97;;;8.00;;
9860;SDS011;4969;52.304;4.968;2023-11-21T00:25:30;12.20;;;7.67;;
9860;SDS011;4969;52.304;4.968;2023-11-21T00:27:57;15.33;;;8.77;;
9860;SDS011;4969;52.304;4.968;2023-11-21T00:30:24;10.83;;;8.33;;
9860;SDS011;4969;52.304;4.968;2023-11-21T00:32:51;14.43;;;8.93;;
9860;SDS011;4969;52.304;4.968;2023-11-21T00:35:18;9.87;;;8.50;;
9860;SDS011;4969;52.304;4.968;2023-11-21T00:37:45;9.07;;;7.73;;
9860;SDS011;4969;52.304;4.968;2023-11-21T00:40:12;12.17;;;9.10;;
9860;SDS011;4969;52.304;4.968;2023-11-21T00:42:40;10.97;;;9.00;;
9860;SDS011;4969;52.304;4.968;2023-11-21T00:45:07;9.87;;;8.80;;
9860;SDS011;4969;52.304;4.968;2023-11-21T00:47:34;15.30;;;9.00;;
9860;SDS011;4969;52.304;4.968;2023-11-21T00:50:02;9.63;;;8.23;;
9860;SDS011;4969;52.304;4.968;2023-11-21T00:52:32;11.63;;;7.77;;
9860;SDS011;4969;52.304;4.968;2023-11-21T00:54:59;13.53;;;8.30;;
9860;SDS011;4969;52.304;4.968;2023-11-21T00:57:26;11.13;;;7.97;;
9860;SDS011;4969;52.304;4.968;2023-11-21T00:59:53;10.30;;;7.40;;
9860;SDS011;4969;52.304;4.968;2023-11-21T01:02:19;10.43;;;7.07;;
9860;SDS011;4969;52.304;4.968;2023-11-21T01:04:46;12.17;;;6.30;;
9860;SDS011;4969;52.304;4.968;2023-11-21T01:07:12;9.77;;;6.47;;
9860;SDS011;4969;52.304;4.968;2023-11-21T01:09:40;11.23;;;7.40;;
9860;SDS011;4969;52.304;4.968;2023-11-21T01:12:09;9.80;;;7.03;;
9860;SDS011;4969;52.304;4.968;2023-11-21T01:14:36;10.23;;;7.50;;
9860;SDS011;4969;52.304;4.968;2023-11-21T01:17:03;8.57;;;6.73;;
9860;SDS011;4969;52.304;4.968;2023-11-21T01:19:30;9.30;;;7.43;;
9860;SDS011;4969;52.304;4.968;2023-11-21T01:21:57;8.43;;;6.77;;
9860;SDS011;4969;52.304;4.968;2023-11-21T01:24:24;10.47;;;7.47;;
9860;SDS011;4969;52.304;4.968;2023-11-21T01:26:52;10.13;;;8.03;;
9860;SDS011;4969;52.304;4.968;2023-11-21T01:29:18;9.73;;;7.13;;
9860;SDS011;4969;52.304;4.968;2023-11-21T01:31:45;12.53;;;7.33;;
9860;SDS011;4969;52.304;4.968;2023-11-21T01:34:12;10.90;;;7.40;;
9860;SDS011;4969;52.304;4.968;2023-11-21T01:36:39;12.80;;;7.53;;
9860;SDS011;4969;52.304;4.968;2023-11-21T01:39:05;11.77;;;7.60;;
9860;SDS011;4969;52.304;4.968;2023-11-21T01:41:35;12.27;;;7.63;;
9860;SDS011;4969;52.304;4.968;2023-11-21T01:44:04;13.83;;;8.03;;
9860;SDS011;4969;52.304;4.968;2023-11-21T01:46:32;11.77;;;7.30;;
9860;SDS011;4969;52.304;4.968;2023-11-21T01:48:59;9.87;;;7.17;;
9860;SDS011;4969;52.304;4.968;2023-11-21T01:51:26;12.60;;;7.53;;
9860;SDS011;4969;52.304;4.968;2023-11-21T01:53:53;15.00;;;8.30;;
9860;SDS011;4969;52.304;4.968;2023-11-21T01:56:20;10.93;;;7.50;;
9860;SDS011;4969;52.304;4.968;2023-11-21T01:58:47;8.63;;;7.00;;
9860;SDS011;4969;52.304;4.968;2023-11-21T02:01:15;13.50;;;7.40;;
9860;SDS011;4969;52.304;4.968;2023-11-21T02:03:44;11.03;;;7.27;;
9860;SDS011;4969;52.304;4.968;2023-11-21T02:06:10;13.37;;;7.63;;
9860;SDS011;4969;52.304;4.968;2023-11-21T02:08:37;13.73;;;7.27;;
9860;SDS011;4969;52.304;4.968;2023-11-21T02:11:04;13.47;;;7.07;;
9860;SDS011;4969;52.304;4.968;2023-11-21T02:13:31;11.27;;;7.10;;
9860;SDS011;4969;52.304;4.968;2023-11-21T02:15:58;11.90;;;7.00;;
9860;SDS011;4969;52.304;4.968;2023-11-21T02:18:26;10.17;;;6.43;;
9860;SDS011;4969;52.304;4.968;2023-11-21T02:20:55;11.10;;;6.87;;
9860;SDS011;4969;52.304;4.968;2023-11-21T02:23:23;14.10;;;7.10;;
9860;SDS011;4969;52.304;4.968;2023-11-21T02:25:53;12.17;;;7.17;;
9860;SDS011;4969;52.304;4.968;2023-11-21T02:28:20;9.47;;;6.60;;
9860;SDS011;4969;52.304;4.968;2023-11-21T02:30:50;10.37;;;6.60;;
9860;SDS011;4969;52.304;4.968;2023-11-21T02:33:20;11.57;;;6.60;;
9860;SDS011;4969;52.304;4.968;2023-11-21T02:35:47;10.07;;;6.00;;
9860;SDS011;4969;52.304;4.968;2023-11-21T02:38:14;10.70;;;6.87;;
9860;SDS011;4969;52.304;4.968;2023-11-21T02:40:42;11.27;;;6.57;;
9860;SDS011;4969;52.304;4.968;2023-11-21T02:43:08;9.13;;;6.00;;
9860;SDS011;4969;52.304;4.968;2023-11-21T02:45:35;8.63;;;6.00;;
9860;SDS011;4969;52.304;4.968;2023-11-21T02:48:01;10.50;;;6.07;;
9860;SDS011;4969;52.304;4.968;2023-11-21T02:50:28;8.60;;;5.67;;
9860;SDS011;4969;52.304;4.968;2023-11-21T02:52:55;6.77;;;5.87;;
9860;SDS011;4969;52.304;4.968;2023-11-21T02:55:22;9.33;;;6.70;;
9860;SDS011;4969;52.304;4.968;2023-11-21T02:57:51;9.33;;;5.57;;
9860;SDS011;4969;52.304;4.968;2023-11-21T03:00:18;8.97;;;5.97;;
9860;SDS011;4969;52.304;4.968;2023-11-21T03:02:44;9.67;;;6.50;;
9860;SDS011;4969;52.304;4.968;2023-11-21T03:05:12;7.10;;;5.97;;
9860;SDS011;4969;52.304;4.968;2023-11-21T03:07:39;8.70;;;5.87;;
9860;SDS011;4969;52.304;4.968;2023-11-21T03:10:06;10.73;;;6.17;;
9860;SDS011;4969;52.304;4.968;2023-11-21T03:12:36;6.03;;;5.40;;
9860;SDS011;4969;52.304;4.968;2023-11-21T03:15:04;10.70;;;6.30;;
9860;SDS011;4969;52.304;4.968;2023-11-21T03:17:31;12.57;;;6.53;;
9860;SDS011;4969;52.304;4.968;2023-11-21T03:19:59;6.67;;;5.80;;
9860;SDS011;4969;52.304;4.968;2023-11-21T03:22:25;9.00;;;6.10;;
9860;SDS011;4969;52.304;4.968;2023-11-21T03:24:52;10.83;;;6.23;;
9860;SDS011;4969;52.304;4.968;2023-11-21T03:27:18;9.60;;;6.17;;
9860;SDS011;4969;52.304;4.968;2023-11-21T03:29:45;8.07;;;6.43;;
9860;SDS011;4969;52.304;4.968;2023-11-21T03:32:13;11.77;;;6.97;;
9860;SDS011;4969;52.304;4.968;2023-11-21T03:34:52;9.17;;;6.17;;
9860;SDS011;4969;52.304;4.968;2023-11-21T03:37:20;7.00;;;5.83;;
9860;SDS011;4969;52.304;4.968;2023-11-21T03:39:47;10.57;;;5.90;;
9860;SDS011;4969;52.304;4.968;2023-11-21T03:42:13;14.97;;;6.30;;
9860;SDS011;4969;52.304;4.968;2023-11-21T03:44:40;9.10;;;5.60;;
9860;SDS011;4969;52.304;4.968;2023-11-21T03:47:06;11.67;;;6.17;;
9860;SDS011;4969;52.304;4.968;2023-11-21T03:49:34;11.23;;;6.50;;
9860;SDS011;4969;52.304;4.968;2023-11-21T03:52:01;9.40;;;5.73;;
9860;SDS011;4969;52.304;4.968;2023-11-21T03:54:27;14.63;;;7.17;;
9860;SDS011;4969;52.304;4.968;2023-11-21T03:56:54;9.87;;;6.33;;
9860;SDS011;4969;52.304;4.968;2023-11-21T03:59:21;8.90;;;6.13;;
9860;SDS011;4969;52.304;4.968;2023-11-21T04:01:49;11.33;;;6.50;;
9860;SDS011;4969;52.304;4.968;2023-11-21T04:04:16;14.43;;;6.10;;
9860;SDS011;4969;52.304;4.968;2023-11-21T04:06:43;12.73;;;6.83;;
9860;SDS011;4969;52.304;4.968;2023-11-21T04:09:10;11.50;;;6.63;;
9860;SDS011;4969;52.304;4.968;2023-11-21T04:11:37;10.17;;;6.33;;
9860;SDS011;4969;52.304;4.968;2023-11-21T04:14:04;13.20;;;6.70;;
9860;SDS011;4969;52.304;4.968;2023-11-21T04:16:30;9.90;;;6.40;;
9860;SDS011;4969;52.304;4.968;2023-11-21T04:18:58;11.73;;;6.57;;
9860;SDS011;4969;52.304;4.968;2023-11-21T04:21:25;9.47;;;6.53;;
9860;SDS011;4969;52.304;4.968;2023-11-21T04:23:53;9.60;;;6.03;;
9860;SDS011;4969;52.304;4.968;2023-11-21T04:26:19;9.93;;;6.37;;
9860;SDS011;4969;52.304;4.968;2023-11-21T04:28:46;7.77;;;6.03;;
9860;SDS011;4969;52.304;4.968;2023-11-21T04:31:13;9.93;;;6.10;;
9860;SDS011;4969;52.304;4.968;2023-11-21T04:33:39;7.93;;;5.27;;
9860;SDS011;4969;52.304;4.968;2023-11-21T04:36:06;8.53;;;5.80;;
9860;SDS011;4969;52.304;4.968;2023-11-21T04:38:33;11.43;;;6.30;;
9860;SDS011;4969;52.304;4.968;2023-11-21T04:41:01;8.60;;;6.03;;
9860;SDS011;4969;52.304;4.968;2023-11-21T04:43:28;7.60;;;5.73;;
9860;SDS011;4969;52.304;4.968;2023-11-21T04:45:55;8.87;;;6.20;;
9860;SDS011;4969;52.304;4.968;2023-11-21T04:48:21;7.33;;;6.60;;
9860;SDS011;4969;52.304;4.968;2023-11-21T04:50:48;9.43;;;6.23;;
9860;SDS011;4969;52.304;4.968;2023-11-21T04:53:14;10.67;;;6.77;;
9860;SDS011;4969;52.304;4.968;2023-11-21T04:55:41;11.87;;;6.50;;
9860;SDS011;4969;52.304;4.968;2023-11-21T04:58:09;11.47;;;7.00;;
9860;SDS011;4969;52.304;4.968;2023-11-21T05:00:37;9.57;;;7.03;;
9860;SDS011;4969;52.304;4.968;2023-11-21T05:03:03;10.00;;;7.27;;
9860;SDS011;4969;52.304;4.968;2023-11-21T05:05:32;9.50;;;6.87;;
9860;SDS011;4969;52.304;4.968;2023-11-21T05:07:59;9.80;;;7.07;;
9860;SDS011;4969;52.304;4.968;2023-11-21T05:10:24;9.90;;;7.20;;
9860;SDS011;4969;52.304;4.968;2023-11-21T05:12:51;9.10;;;6.80;;
9860;SDS011;4969;52.304;4.968;2023-11-21T05:15:19;7.03;;;5.97;;
9860;SDS011;4969;52.304;4.968;2023-11-21T05:17:46;11.17;;;6.60;;
9860;SDS011;4969;52.304;4.968;2023-11-21T05:20:15;9.83;;;7.57;;
9860;SDS011;4969;52.304;4.968;2023-11-21T05:22:45;7.73;;;6.67;;
9860;SDS011;4969;52.304;4.968;2023-11-21T05:25:13;7.97;;;6.47;;
9860;SDS011;4969;52.304;4.968;2023-11-21T05:27:40;10.47;;;7.10;;
9860;SDS011;4969;52.304;4.968;2023-11-21T05:30:06;9.87;;;6.30;;
9860;SDS011;4969;52.304;4.968;2023-11-21T05:32:38;9.40;;;6.67;;
9860;SDS011;4969;52.304;4.968;2023-11-21T05:35:05;7.30;;;5.30;;
9860;SDS011;4969;52.304;4.968;2023-11-21T05:37:34;11.03;;;5.87;;
9860;SDS011;4969;52.304;4.968;2023-11-21T05:40:04;10.90;;;6.10;;
9860;SDS011;4969;52.304;4.968;2023-11-21T05:42:31;9.73;;;6.33;;
9860;SDS011;4969;52.304;4.968;2023-11-21T05:44:58;9.10;;;5.73;;
9860;SDS011;4969;52.304;4.968;2023-11-21T05:47:34;6.90;;;5.23;;
9860;SDS011;4969;52.304;4.968;2023-11-21T05:50:03;10.03;;;5.70;;
9860;SDS011;4969;52.304;4.968;2023-11-21T05:52:31;6.23;;;4.90;;
9860;SDS011;4969;52.304;4.968;2023-11-21T05:54:58;9.90;;;4.80;;
9860;SDS011;4969;52.304;4.968;2023-11-21T05:57:25;7.97;;;4.33;;
9860;SDS011;4969;52.304;4.968;2023-11-21T05:59:51;14.37;;;4.57;;
9860;SDS011;4969;52.304;4.968;2023-11-21T06:02:18;7.33;;;4.13;;
9860;SDS011;4969;52.304;4.968;2023-11-21T06:04:44;6.10;;;4.00;;
9860;SDS011;4969;52.304;4.968;2023-11-21T06:07:12;6.07;;;4.07;;
9860;SDS011;4969;52.304;4.968;2023-11-21T06:09:39;5.97;;;2.77;;
9860;SDS011;4969;52.304;4.968;2023-11-21T06:12:06;5.07;;;3.20;;
9860;SDS011;4969;52.304;4.968;2023-11-21T06:14:33;3.87;;;3.10;;
9860;SDS011;4969;52.304;4.968;2023-11-21T06:17:00;7.77;;;3.40;;
9860;SDS011;4969;52.304;4.968;2023-11-21T06:19:27;6.90;;;3.50;;
9860;SDS011;4969;52.304;4.968;2023-11-21T06:21:53;6.10;;;3.50;;
9860;SDS011;4969;52.304;4.968;2023-11-21T06:24:21;6.13;;;3.40;;
9860;SDS011;4969;52.304;4.968;2023-11-21T06:26:48;6.27;;;3.70;;
9860;SDS011;4969;52.304;4.968;2023-11-21T06:29:14;7.90;;;3.27;;
9860;SDS011;4969;52.304;4.968;2023-11-21T06:31:41;9.20;;;3.77;;
9860;SDS011;4969;52.304;4.968;2023-11-21T06:34:08;7.87;;;3.53;;
9860;SDS011;4969;52.304;4.968;2023-11-21T06:36:35;5.70;;;3.80;;
9860;SDS011;4969;52.304;4.968;2023-11-21T06:39:02;6.20;;;3.83;;
9860;SDS011;4969;52.304;4.968;2023-11-21T06:41:33;8.30;;;4.53;;
9860;SDS011;4969;52.304;4.968;2023-11-21T06:43:59;6.60;;;4.27;;
9860;SDS011;4969;52.304;4.968;2023-11-21T06:46:26;7.67;;;5.10;;
9860;SDS011;4969;52.304;4.968;2023-11-21T06:48:53;6.70;;;4.70;;
9860;SDS011;4969;52.304;4.968;2023-11-21T06:51:19;14.43;;;5.53;;
9860;SDS011;4969;52.304;4.968;2023-11-21T06:53:46;7.40;;;5.67;;
9860;SDS011;4969;52.304;4.968;2023-11-21T06:56:16;9.80;;;5.57;;
9860;SDS011;4969;52.304;4.968;2023-11-21T06:58:44;6.60;;;5.63;;
9860;SDS011;4969;52.304;4.968;2023-11-21T07:01:11;7.03;;;5.23;;
9860;SDS011;4969;52.304;4.968;2023-11-21T07:03:38;9.80;;;5.60;;
9860;SDS011;4969;52.304;4.968;2023-11-21T07:06:06;12.10;;;5.73;;
9860;SDS011;4969;52.304;4.968;2023-11-21T07:08:33;10.50;;;6.33;;
9860;SDS011;4969;52.304;4.968;2023-11-21T07:10:59;6.93;;;5.40;;
9860;SDS011;4969;52.304;4.968;2023-11-21T07:13:28;7.10;;;5.90;;
9860;SDS011;4969;52.304;4.968;2023-11-21T07:15:56;9.37;;;5.53;;
9860;SDS011;4969;52.304;4.968;2023-11-21T07:18:22;11.67;;;6.03;;
9860;SDS011;4969;52.304;4.968;2023-11-21T07:20:49;7.67;;;6.10;;
9860;SDS011;4969;52.304;4.968;2023-11-21T07:23:16;10.73;;;6.67;;
9860;SDS011;4969;52.304;4.968;2023-11-21T07:25:43;8.10;;;6.33;;
9860;SDS011;4969;52.304;4.968;2023-11-21T07:28:10;8.87;;;6.80;;
9860;SDS011;4969;52.304;4.968;2023-11-21T07:30:36;7.93;;;6.93;;
9860;SDS011;4969;52.304;4.968;2023-11-21T07:33:04;11.57;;;7.17;;
9860;SDS011;4969;52.304;4.968;2023-11-21T07:35:32;11.37;;;7.33;;
9860;SDS011;4969;52.304;4.968;2023-11-21T07:37:59;10.47;;;7.77;;
9860;SDS011;4969;52.304;4.968;2023-11-21T07:40:25;9.23;;;7.23;;
9860;SDS011;4969;52.304;4.968;2023-11-21T07:42:52;11.83;;;7.50;;
9860;SDS011;4969;52.304;4.968;2023-11-21T07:45:22;10.57;;;7.83;;
9860;SDS011;4969;52.304;4.968;2023-11-21T07:47:49;13.00;;;7.60;;
9860;SDS011;4969;52.304;4.968;2023-11-21T07:50:17;12.77;;;7.47;;
9860;SDS011;4969;52.304;4.968;2023-11-21T07:52:44;8.87;;;7.00;;
9860;SDS011;4969;52.304;4.968;2023-11-21T07:55:10;11.13;;;7.53;;
9860;SDS011;4969;52.304;4.968;2023-11-21T07:57:37;10.10;;;7.13;;
9860;SDS011;4969;52.304;4.968;2023-11-21T08:00:04;9.77;;;6.90;;
9860;SDS011;4969;52.304;4.968;2023-11-21T08:02:34;10.23;;;7.13;;
9860;SDS011;4969;52.304;4.968;2023-11-21T08:05:00;11.07;;;7.10;;
9860;SDS011;4969;52.304;4.968;2023-11-21T08:07:28;10.50;;;7.10;;
9860;SDS011;4969;52.304;4.968;2023-11-21T08:09:55;10.07;;;6.83;;
9860;SDS011;4969;52.304;4.968;2023-11-21T08:12:21;10.47;;;7.60;;
9860;SDS011;4969;52.304;4.968;2023-11-21T08:14:49;8.87;;;7.03;;
9860;SDS011;4969;52.304;4.968;2023-11-21T08:17:15;10.57;;;7.43;;
9860;SDS011;4969;52.304;4.968;2023-11-21T08:19:42;10.47;;;7.33;;
9860;SDS011;4969;52.304;4.968;2023-11-21T08:22:09;10.33;;;7.57;;
9860;SDS011;4969;52.304;4.968;2023-11-21T08:24:37;10.67;;;8.00;;
9860;SDS011;4969;52.304;4.968;2023-11-21T08:27:04;9.73;;;7.03;;
9860;SDS011;4969;52.304;4.968;2023-11-21T08:29:31;8.50;;;7.70;;
9860;SDS011;4969;52.304;4.968;2023-11-21T08:31:59;8.60;;;7.70;;
9860;SDS011;4969;52.304;4.968;2023-11-21T08:34:26;6.97;;;6.27;;
9860;SDS011;4969;52.304;4.968;2023-11-21T08:36:53;10.07;;;6.47;;
9860;SDS011;4969;52.304;4.968;2023-11-21T08:39:20;8.47;;;6.80;;
9860;SDS011;4969;52.304;4.968;2023-11-21T08:41:50;9.30;;;7.57;;
9860;SDS011;4969;52.304;4.968;2023-11-21T08:44:17;9.97;;;7.90;;
9860;SDS011;4969;52.304;4.968;2023-11-21T08:46:44;12.57;;;8.97;;
9860;SDS011;4969;52.304;4.968;2023-11-21T08:49:11;9.20;;;7.80;;
9860;SDS011;4969;52.304;4.968;2023-11-21T08:51:39;8.43;;;7.07;;
9860;SDS011;4969;52.304;4.968;2023-11-21T08:54:06;8.53;;;7.13;;
9860;SDS011;4969;52.304;4.968;2023-11-21T08:56:33;8.40;;;7.47;;
9860;SDS011;4969;52.304;4.968;2023-11-21T08:59:01;9.90;;;7.13;;
9860;SDS011;4969;52.304;4.968;2023-11-21T09:01:28;10.23;;;7.73;;
9860;SDS011;4969;52.304;4.968;2023-11-21T09:03:56;9.70;;;8.70;;
9860;SDS011;4969;52.304;4.968;2023-11-21T09:06:22;10.30;;;8.70;;
9860;SDS011;4969;52.304;4.968;2023-11-21T09:08:49;13.33;;;8.80;;
9860;SDS011;4969;52.304;4.968;2023-11-21T09:11:15;9.70;;;7.97;;
9860;SDS011;4969;52.304;4.968;2023-11-21T09:13:43;9.47;;;8.20;;
9860;SDS011;4969;52.304;4.968;2023-11-21T09:16:11;9.53;;;7.50;;
9860;SDS011;4969;52.304;4.968;2023-11-21T09:18:37;9.50;;;8.60;;
9860;SDS011;4969;52.304;4.968;2023-11-21T09:21:04;10.03;;;8.20;;
9860;SDS011;4969;52.304;4.968;2023-11-21T09:23:31;9.13;;;7.40;;
9860;SDS011;4969;52.304;4.968;2023-11-21T09:25:58;14.33;;;8.37;;
9860;SDS011;4969;52.304;4.968;2023-11-21T09:28:25;11.43;;;10.10;;
9860;SDS011;4969;52.304;4.968;2023-11-21T09:30:52;10.17;;;9.17;;
9860;SDS011;4969;52.304;4.968;2023-11-21T09:33:20;16.57;;;11.80;;
9860;SDS011;4969;52.304;4.968;2023-11-21T09:35:48;14.77;;;10.37;;
9860;SDS011;4969;52.304;4.968;2023-11-21T09:38:15;15.93;;;12.37;;
9860;SDS011;4969;52.304;4.968;2023-11-21T09:40:42;18.10;;;13.73;;
9860;SDS011;4969;52.304;4.968;2023-11-21T09:43:09;18.03;;;14.00;;
9860;SDS011;4969;52.304;4.968;2023-11-21T09:45:43;18.27;;;12.43;;
9860;SDS011;4969;52.304;4.968;2023-11-21T09:48:12;17.30;;;12.43;;
9860;SDS011;4969;52.304;4.968;2023-11-21T09:50:40;14.80;;;12.63;;
9860;SDS011;4969;52.304;4.968;2023-11-21T09:53:09;19.73;;;14.17;;
9860;SDS011;4969;52.304;4.968;2023-11-21T09:55:40;19.03;;;14.17;;
9860;SDS011;4969;52.304;4.968;2023-11-21T09:58:09;18.27;;;13.77;;
9860;SDS011;4969;52.304;4.968;2023-11-21T10:00:37;15.63;;;11.70;;
9860;SDS011;4969;52.304;4.968;2023-11-21T10:03:06;18.87;;;12.93;;
9860;SDS011;4969;52.304;4.968;2023-11-21T10:05:33;15.37;;;10.90;;
9860;SDS011;4969;52.304;4.968;2023-11-21T10:08:01;17.33;;;12.80;;
9860;SDS011;4969;52.304;4.968;2023-11-21T10:10:31;16.73;;;13.67;;
9860;SDS011;4969;52.304;4.968;2023-11-21T10:13:01;16.10;;;11.77;;
9860;SDS011;4969;52.304;4.968;2023-11-21T10:15:31;17.00;;;12.50;;
9860;SDS011;4969;52.304;4.968;2023-11-21T10:17:59;14.93;;;12.73;;
9860;SDS011;4969;52.304;4.968;2023-11-21T10:20:28;15.50;;;12.40;;
9860;SDS011;4969;52.304;4.968;2023-11-21T10:22:55;19.30;;;12.67;;
9860;SDS011;4969;52.304;4.968;2023-11-21T10:25:24;16.47;;;12.63;;
9860;SDS011;4969;52.304;4.968;2023-11-21T10:27:56;15.40;;;12.53;;
9860;SDS011;4969;52.304;4.968;2023-11-21T10:30:27;16.17;;;12.13;;
9860;SDS011;4969;52.304;4.968;2023-11-21T10:32:58;17.27;;;11.37;;
9860;SDS011;4969;52.304;4.968;2023-11-21T10:35:25;16.07;;;12.00;;
9860;SDS011;4969;52.304;4.968;2023-11-21T10:38:04;15.07;;;11.53;;
9860;SDS011;4969;52.304;4.968;2023-11-21T10:40:34;18.93;;;13.40;;
9860;SDS011;4969;52.304;4.968;2023-11-21T10:43:05;18.40;;;11.37;;
9860;SDS011;4969;52.304;4.968;2023-11-21T10:45:33;14.90;;;11.00;;
9860;SDS011;4969;52.304;4.968;2023-11-21T10:48:04;20.27;;;12.60;;
9860;SDS011;4969;52.304;4.968;2023-11-21T10:50:32;19.83;;;13.77;;
9860;SDS011;4969;52.304;4.968;2023-11-21T10:53:00;20.40;;;13.80;;
9860;SDS011;4969;52.304;4.968;2023-11-21T10:55:27;18.83;;;13.73;;
9860;SDS011;4969;52.304;4.968;2023-11-21T10:57:55;21.73;;;13.10;;
9860;SDS011;4969;52.304;4.968;2023-11-21T11:00:24;21.67;;;14.00;;
9860;SDS011;4969;52.304;4.968;2023-11-21T11:02:52;24.77;;;13.27;;
9860;SDS011;4969;52.304;4.968;2023-11-21T11:05:20;22.20;;;14.90;;
9860;SDS011;4969;52.304;4.968;2023-11-21T11:07:50;20.87;;;13.57;;
9860;SDS011;4969;52.304;4.968;2023-11-21T11:10:19;20.23;;;14.60;;
9860;SDS011;4969;52.304;4.968;2023-11-21T11:12:48;22.80;;;16.13;;
9860;SDS011;4969;52.304;4.968;2023-11-21T11:15:16;20.60;;;14.53;;
9860;SDS011;4969;52.304;4.968;2023-11-21T11:17:43;21.63;;;14.90;;
9860;SDS011;4969;52.304;4.968;2023-11-21T11:20:11;21.77;;;15.10;;
9860;SDS011;4969;52.304;4.968;2023-11-21T11:22:42;23.33;;;15.90;;
9860;SDS011;4969;52.304;4.968;2023-11-21T11:25:19;26.37;;;16.03;;
9860;SDS011;4969;52.304;4.968;2023-11-21T11:27:54;26.37;;;17.93;;
9860;SDS011;4969;52.304;4.968;2023-11-21T11:30:34;22.23;;;16.20;;
9860;SDS011;4969;52.304;4.968;2023-11-21T11:33:10;19.97;;;16.10;;
9860;SDS011;4969;52.304;4.968;2023-11-21T11:35:50;18.50;;;13.57;;
9860;SDS011;4969;52.304;4.968;2023-11-21T11:38:21;16.63;;;12.57;;
9860;SDS011;4969;52.304;4.968;2023-11-21T11:40:48;14.20;;;12.53;;
9860;SDS011;4969;52.304;4.968;2023-11-21T11:43:24;14.53;;;11.80;;
9860;SDS011;4969;52.304;4.968;2023-11-21T11:45:53;13.53;;;12.13;;
9860;SDS011;4969;52.304;4.968;2023-11-21T11:48:22;12.10;;;10.80;;
9860;SDS011;4969;52.304;4.968;2023-11-21T11:51:01;12.30;;;11.00;;
9860;SDS011;4969;52.304;4.968;2023-11-21T11:53:32;14.00;;;11.43;;
9860;SDS011;4969;52.304;4.968;2023-11-21T11:58:48;12.60;;;10.63;;
9860;SDS011;4969;52.304;4.968;2023-11-21T12:01:17;13.57;;;12.17;;
9860;SDS011;4969;52.304;4.968;2023-11-21T12:03:44;11.70;;;10.50;;
9860;SDS011;4969;52.304;4.968;2023-11-21T12:06:33;12.50;;;10.47;;
9860;SDS011;4969;52.304;4.968;2023-11-21T12:09:00;10.30;;;9.30;;
9860;SDS011;4969;52.304;4.968;2023-11-21T12:11:30;13.00;;;11.57;;
9860;SDS011;4969;52.304;4.968;2023-11-21T12:13:56;13.13;;;11.77;;
9860;SDS011;4969;52.304;4.968;2023-11-21T12:16:25;12.73;;;11.40;;
9860;SDS011;4969;52.304;4.968;2023-11-21T12:18:53;12.90;;;11.43;;
9860;SDS011;4969;52.304;4.968;2023-11-21T12:21:20;12.37;;;11.07;;
9860;SDS011;4969;52.304;4.968;2023-11-21T12:23:46;13.30;;;11.87;;
9860;SDS011;4969;52.304;4.968;2023-11-21T12:26:13;11.83;;;10.63;;
9860;SDS011;4969;52.304;4.968;2023-11-21T12:28:40;13.27;;;11.97;;
9860;SDS011;4969;52.304;4.968;2023-11-21T12:31:06;13.37;;;12.17;;
9860;SDS011;4969;52.304;4.968;2023-11-21T12:33:34;14.77;;;13.27;;
9860;SDS011;4969;52.304;4.968;2023-11-21T12:36:01;12.63;;;11.33;;
9860;SDS011;4969;52.304;4.968;2023-11-21T12:38:33;13.77;;;12.30;;
9860;SDS011;4969;52.304;4.968;2023-11-21T12:41:00;13.67;;;12.17;;
9860;SDS011;4969;52.304;4.968;2023-11-21T12:43:27;13.73;;;12.37;;
9860;SDS011;4969;52.304;4.968;2023-11-21T12:46:04;16.67;;;14.97;;
9860;SDS011;4969;52.304;4.968;2023-11-21T12:48:32;17.20;;;14.57;;
9860;SDS011;4969;52.304;4.968;2023-11-21T12:51:00;16.77;;;14.83;;
9860;SDS011;4969;52.304;4.968;2023-11-21T12:53:28;16.83;;;14.87;;
9860;SDS011;4969;52.304;4.968;2023-11-21T12:56:01;16.87;;;15.07;;
9860;SDS011;4969;52.304;4.968;2023-11-21T12:58:28;17.57;;;15.70;;
9860;SDS011;4969;52.304;4.968;2023-11-21T13:00:55;15.13;;;13.47;;
9860;SDS011;4969;52.304;4.968;2023-11-21T13:03:24;17.27;;;15.47;;
9860;SDS011;4969;52.304;4.968;2023-11-21T13:05:51;16.90;;;15.20;;
9860;SDS011;4969;52.304;4.968;2023-11-21T13:08:24;16.43;;;14.73;;
9860;SDS011;4969;52.304;4.968;2023-11-21T13:10:52;17.57;;;14.83;;
9860;SDS011;4969;52.304;4.968;2023-11-21T13:13:20;16.40;;;14.70;;
9860;SDS011;4969;52.304;4.968;2023-11-21T13:15:47;17.20;;;15.37;;
9860;SDS011;4969;52.304;4.968;2023-11-21T13:18:14;16.07;;;14.43;;
9860;SDS011;4969;52.304;4.968;2023-11-21T13:20:42;14.60;;;12.83;;
9860;SDS011;4969;52.304;4.968;2023-11-21T13:23:09;14.43;;;12.93;;
9860;SDS011;4969;52.304;4.968;2023-11-21T13:25:38;13.93;;;12.47;;
9860;SDS011;4969;52.304;4.968;2023-11-21T13:28:06;15.17;;;13.27;;
9860;SDS011;4969;52.304;4.968;2023-11-21T13:30:34;13.77;;;12.40;;
9860;SDS011;4969;52.304;4.968;2023-11-21T13:33:02;14.87;;;13.27;;
9860;SDS011;4969;52.304;4.968;2023-11-21T13:35:31;14.73;;;13.10;;
9860;SDS011;4969;52.304;4.968;2023-11-21T13:38:03;13.63;;;11.73;;
9860;SDS011;4969;52.304;4.968;2023-11-21T13:40:31;14.00;;;12.60;;
9860;SDS011;4969;52.304;4.968;2023-11-21T13:43:04;14.43;;;10.97;;
9860;SDS011;4969;52.304;4.968;2023-11-21T13:45:30;12.57;;;11.30;;
9860;SDS011;4969;52.304;4.968;2023-11-21T13:47:57;12.93;;;11.73;;
9860;SDS011;4969;52.304;4.968;2023-11-21T13:50:24;13.60;;;12.20;;
9860;SDS011;4969;52.304;4.968;2023-11-21T13:52:55;13.37;;;12.07;;
9860;SDS011;4969;52.304;4.968;2023-11-21T13:55:22;14.00;;;11.97;;
9860;SDS011;4969;52.304;4.968;2023-11-21T13:57:50;14.70;;;13.20;;
9860;SDS011;4969;52.304;4.968;2023-11-21T14:00:19;13.30;;;12.03;;
9860;SDS011;4969;52.304;4.968;2023-11-21T14:03:03;13.50;;;12.27;;
9860;SDS011;4969;52.304;4.968;2023-11-21T14:05:35;13.43;;;12.07;;
9860;SDS011;4969;52.304;4.968;2023-11-21T14:08:02;12.77;;;11.50;;
9860;SDS011;4969;52.304;4.968;2023-11-21T14:10:29;11.97;;;10.77;;
9860;SDS011;4969;52.304;4.968;2023-11-21T14:13:05;14.10;;;12.60;;
9860;SDS011;4969;52.304;4.968;2023-11-21T14:15:33;14.30;;;12.80;;
9860;SDS011;4969;52.304;4.968;2023-11-21T14:18:03;16.63;;;15.03;;
9860;SDS011;4969;52.304;4.968;2023-11-21T14:20:33;17.20;;;15.50;;
9860;SDS011;4969;52.304;4.968;2023-11-21T14:23:01;17.63;;;15.83;;
9860;SDS011;4969;52.304;4.968;2023-11-21T14:25:28;18.17;;;15.67;;
9860;SDS011;4969;52.304;4.968;2023-11-21T14:27:54;17.57;;;15.87;;
9860;SDS011;4969;52.304;4.968;2023-11-21T14:30:21;15.73;;;14.13;;
9860;SDS011;4969;52.304;4.968;2023-11-21T14:32:49;16.47;;;14.87;;
9860;SDS011;4969;52.304;4.968;2023-11-21T14:35:16;16.40;;;13.70;;
9860;SDS011;4969;52.304;4.968;2023-11-21T14:37:42;14.17;;;12.87;;
9860;SDS011;4969;52.304;4.968;2023-11-21T14:40:10;13.33;;;12.03;;
9860;SDS011;4969;52.304;4.968;2023-11-21T14:42:40;12.03;;;10.93;;
9860;SDS011;4969;52.304;4.968;2023-11-21T14:45:08;11.77;;;10.67;;
9860;SDS011;4969;52.304;4.968;2023-11-21T14:47:37;13.40;;;12.17;;
9860;SDS011;4969;52.304;4.968;2023-11-21T14:50:10;12.10;;;10.90;;
9860;SDS011;4969;52.304;4.968;2023-11-21T14:53:04;11.70;;;10.70;;
9860;SDS011;4969;52.304;4.968;2023-11-21T14:55:31;12.13;;;10.93;;
9860;SDS011;4969;52.304;4.968;2023-11-21T14:58:04;10.83;;;9.93;;
9860;SDS011;4969;52.304;4.968;2023-11-21T15:00:30;11.80;;;10.70;;
9860;SDS011;4969;52.304;4.968;2023-11-21T15:03:06;12.13;;;10.90;;
9860;SDS011;4969;52.304;4.968;2023-11-21T15:05:34;10.40;;;9.50;;
9860;SDS011;4969;52.304;4.968;2023-11-21T15:08:00;11.50;;;10.50;;